Time;durP1;ratioP1;P1;durP2;ratioP2;P2;SDS_P1;SDS_P2;PMS_P1;PMS_P2;Temp;Humidity;BMP_temperature;BMP_pressure;BME280_temperature;BME280_humidity;BME280_pressure;Samples;Min_cycle;Max_cycle;Signal;HPM_P1;HPM_P2
2022/10/27 00:00:43;;;;;;;1.35;1.10;;;15.40;77.40;;;;;;5106317;28;20052;-70
2022/10/27 00:03:10;;;;;;;2.45;0.95;;;15.40;76.90;;;;;;5096254;28;20040;-71
2022/10/27 00:05:36;;;;;;;1.67;0.90;;;15.40;76.90;;;;;;5099140;28;20044;-71
2022/10/27 00:08:02;;;;;;;0.80;0.70;;;15.40;76.90;;;;;;5084682;28;20059;-71
2022/10/27 00:10:27;;;;;;;0.57;0.57;;;15.40;77.00;;;;;;5097030;28;20035;-71
2022/10/27 00:12:53;;;;;;;5.63;1.48;;;15.50;77.10;;;;;;5098151;28;20040;-70
2022/10/27 00:15:19;;;;;;;1.23;1.13;;;15.50;77.20;;;;;;5104488;28;20034;-70
2022/10/27 00:17:44;;;;;;;1.17;1.05;;;15.50;77.20;;;;;;5106253;28;20028;-70
2022/10/27 00:20:10;;;;;;;1.45;1.13;;;15.50;77.20;;;;;;5096773;28;20573;-70
2022/10/27 00:22:36;;;;;;;0.90;0.82;;;15.50;77.30;;;;;;5098946;28;20032;-70
2022/10/27 00:25:03;;;;;;;4.32;1.25;;;15.40;77.50;;;;;;5094588;28;20031;-70
2022/10/27 00:27:28;;;;;;;1.58;0.93;;;15.40;77.70;;;;;;5113911;28;20490;-71
2022/10/27 00:29:54;;;;;;;1.42;1.15;;;15.40;77.90;;;;;;5108243;28;20123;-71
2022/10/27 00:32:20;;;;;;;3.15;1.67;;;15.30;78.00;;;;;;5108177;28;20114;-72
2022/10/27 00:34:45;;;;;;;3.58;1.45;;;15.30;78.00;;;;;;5088431;28;20479;-71
2022/10/27 00:37:11;;;;;;;1.08;0.95;;;15.30;78.10;;;;;;5100357;28;20039;-70
2022/10/27 00:39:37;;;;;;;1.20;1.10;;;15.30;78.00;;;;;;5087436;28;20040;-70
2022/10/27 00:42:03;;;;;;;6.80;1.48;;;15.30;78.00;;;;;;5097423;28;20432;-70
2022/10/27 00:44:33;;;;;;;2.83;0.90;;;15.30;78.00;;;;;;5108356;28;20031;-72
2022/10/27 00:47:04;;;;;;;2.97;1.65;;;15.30;77.90;;;;;;5098045;28;20023;-70
2022/10/27 00:49:34;;;;;;;1.45;1.00;;;15.20;77.90;;;;;;5105598;28;20020;-72
2022/10/27 00:52:11;;;;;;;4.35;2.00;;;15.20;78.00;;;;;;5091534;28;20657;-71
2022/10/27 00:54:40;;;;;;;2.20;1.23;;;15.10;78.10;;;;;;5107080;28;20040;-70
2022/10/27 00:57:09;;;;;;;6.72;1.20;;;15.10;78.10;;;;;;5103066;28;20192;-70
2022/10/27 00:59:36;;;;;;;2.22;1.35;;;15.10;78.80;;;;;;5105848;28;20447;-72
2022/10/27 01:02:02;;;;;;;2.17;1.52;;;15.10;78.20;;;;;;5102522;28;20016;-70
2022/10/27 01:04:44;;;;;;;1.65;1.45;;;15.10;78.10;;;;;;5105201;28;20028;-70
2022/10/27 01:07:13;;;;;;;2.28;1.00;;;15.10;77.90;;;;;;5091004;28;20136;-70
2022/10/27 01:09:40;;;;;;;1.80;1.20;;;15.10;77.90;;;;;;5094560;28;20024;-70
2022/10/27 01:12:06;;;;;;;1.75;1.35;;;15.10;77.80;;;;;;5102832;28;20479;-70
2022/10/27 01:14:31;;;;;;;1.08;0.98;;;15.10;77.80;;;;;;5094193;28;20091;-70
2022/10/27 01:17:13;;;;;;;9.80;1.13;;;15.10;77.80;;;;;;5092133;28;20020;-70
2022/10/27 01:19:57;;;;;;;10.50;1.13;;;15.10;77.90;;;;;;5086174;28;20028;-70
2022/10/27 01:22:29;;;;;;;2.22;1.45;;;15.10;77.80;;;;;;5091518;28;20103;-69
2022/10/27 01:25:20;;;;;;;1.25;0.80;;;15.10;78.00;;;;;;5088203;28;20020;-70
2022/10/27 01:28:08;;;;;;;3.00;1.38;;;15.10;77.80;;;;;;5085110;28;20491;-70
2022/10/27 01:30:58;;;;;;;2.40;1.42;;;15.10;77.80;;;;;;5089388;28;20426;-70
2022/10/27 01:33:39;;;;;;;2.80;1.38;;;15.00;77.90;;;;;;5090199;28;20024;-72
2022/10/27 01:36:22;;;;;;;2.43;1.90;;;15.00;78.10;;;;;;5083813;28;20394;-72
2022/10/27 01:38:59;;;;;;;1.15;1.05;;;14.90;78.10;;;;;;5094257;28;20269;-72
2022/10/27 01:41:31;;;;;;;0.95;0.85;;;14.90;78.20;;;;;;5092278;28;20032;-72
2022/10/27 01:44:05;;;;;;;1.73;1.50;;;14.90;78.20;;;;;;5094230;28;20030;-72
2022/10/27 01:46:31;;;;;;;2.20;1.42;;;14.90;78.20;;;;;;5095418;28;20059;-72
2022/10/27 01:48:58;;;;;;;1.58;1.35;;;14.90;78.30;;;;;;5095410;28;20060;-72
2022/10/27 01:51:23;;;;;;;1.77;1.35;;;14.90;78.30;;;;;;5088977;28;20575;-70
2022/10/27 01:53:51;;;;;;;2.00;0.73;;;14.90;78.30;;;;;;5085717;28;20075;-72
2022/10/27 01:56:39;;;;;;;1.23;1.13;;;14.90;78.90;;;;;;5111348;28;20031;-72
2022/10/27 01:59:20;;;;;;;2.13;1.20;;;14.90;78.30;;;;;;5092795;28;20032;-72
2022/10/27 02:02:06;;;;;;;1.48;1.13;;;14.80;78.40;;;;;;5087735;28;20035;-72
2022/10/27 02:04:58;;;;;;;1.63;1.48;;;14.90;78.40;;;;;;5101919;28;20028;-70
2022/10/27 02:07:58;;;;;;;1.33;1.23;;;14.90;78.50;;;;;;5102637;28;20031;-70
2022/10/27 02:10:34;;;;;;;3.92;1.70;;;14.80;78.50;;;;;;5073269;28;20629;-69
2022/10/27 02:13:02;;;;;;;1.58;1.30;;;14.80;78.50;;;;;;5101053;28;20161;-72
2022/10/27 02:15:46;;;;;;;1.42;1.17;;;14.80;78.50;;;;;;5098100;28;20024;-70
2022/10/27 02:18:22;;;;;;;1.58;1.25;;;14.90;78.40;;;;;;5090010;28;20024;-72
2022/10/27 02:20:52;;;;;;;1.40;0.80;;;14.90;79.10;;;;;;5090356;28;20027;-69
2022/10/27 02:23:20;;;;;;;1.63;1.17;;;14.90;78.50;;;;;;5104816;28;20549;-71
2022/10/27 02:26:04;;;;;;;1.35;1.15;;;14.90;78.60;;;;;;5095364;28;20030;-70
2022/10/27 02:28:38;;;;;;;1.85;1.17;;;14.90;78.60;;;;;;5108026;28;20028;-70
2022/10/27 02:31:05;;;;;;;2.17;1.40;;;14.90;78.70;;;;;;5098664;28;20028;-72
2022/10/27 02:33:31;;;;;;;0.98;0.85;;;14.90;78.70;;;;;;5091183;28;20028;-72
2022/10/27 02:35:57;;;;;;;1.23;1.08;;;14.90;78.70;;;;;;5093536;28;20030;-72
2022/10/27 02:38:23;;;;;;;1.65;1.52;;;14.90;79.30;;;;;;5085952;28;20059;-70
2022/10/27 02:40:49;;;;;;;2.13;1.27;;;14.90;78.80;;;;;;5079138;28;20059;-69
2022/10/27 02:43:15;;;;;;;2.35;1.17;;;14.90;78.80;;;;;;5095693;28;20032;-69
2022/10/27 02:45:40;;;;;;;0.70;0.70;;;14.90;78.80;;;;;;5086677;28;20039;-72
2022/10/27 02:48:06;;;;;;;1.85;1.23;;;14.90;78.80;;;;;;5100011;28;20044;-70
2022/10/27 02:50:32;;;;;;;5.38;1.20;;;14.90;78.90;;;;;;5095970;28;20036;-72
2022/10/27 02:52:58;;;;;;;1.58;0.70;;;14.80;78.90;;;;;;5089881;28;20062;-70
2022/10/27 02:55:23;;;;;;;1.42;1.23;;;14.90;79.00;;;;;;5087331;28;20028;-70
2022/10/27 02:57:49;;;;;;;1.73;1.17;;;14.80;78.90;;;;;;5096808;28;20106;-72
2022/10/27 03:00:15;;;;;;;2.95;0.90;;;14.80;79.00;;;;;;5090121;28;20499;-72
2022/10/27 03:02:41;;;;;;;1.48;1.02;;;14.80;79.00;;;;;;5096467;28;20056;-70
2022/10/27 03:05:07;;;;;;;0.75;0.75;;;14.80;79.00;;;;;;5101855;28;20075;-69
2022/10/27 03:07:32;;;;;;;1.90;1.30;;;14.70;78.90;;;;;;5094711;28;20036;-70
2022/10/27 03:09:58;;;;;;;1.63;1.20;;;14.70;79.00;;;;;;5108583;28;20136;-69
2022/10/27 03:12:24;;;;;;;1.80;1.15;;;14.70;79.00;;;;;;5080887;28;20604;-69
2022/10/27 03:14:49;;;;;;;1.20;1.02;;;14.70;79.00;;;;;;5093130;28;20032;-69
2022/10/27 03:17:15;;;;;;;2.28;1.20;;;14.70;79.00;;;;;;5099038;28;20024;-70
2022/10/27 03:19:41;;;;;;;1.35;0.95;;;14.60;79.00;;;;;;5103855;28;20028;-70
2022/10/27 03:22:06;;;;;;;1.88;1.10;;;14.60;79.00;;;;;;5077092;28;20043;-69
2022/10/27 03:24:32;;;;;;;2.70;1.65;;;14.60;79.00;;;;;;5101630;28;20092;-72
2022/10/27 03:26:58;;;;;;;3.75;1.17;;;14.60;79.00;;;;;;5098284;28;20028;-72
2022/10/27 03:29:24;;;;;;;1.48;1.30;;;14.60;79.00;;;;;;5086968;28;20052;-72
2022/10/27 03:31:50;;;;;;;1.40;1.15;;;14.60;79.00;;;;;;5104481;28;20055;-72
2022/10/27 03:34:16;;;;;;;1.30;1.20;;;14.50;79.00;;;;;;5088398;28;20464;-72
2022/10/27 03:36:41;;;;;;;1.20;1.10;;;14.50;79.00;;;;;;5084790;28;20034;-72
2022/10/27 03:39:07;;;;;;;1.48;1.25;;;14.50;79.00;;;;;;5101942;28;20032;-70
2022/10/27 03:41:32;;;;;;;1.30;1.20;;;14.50;79.00;;;;;;5102008;28;20055;-70
2022/10/27 03:43:58;;;;;;;1.08;0.90;;;14.40;79.00;;;;;;5107301;28;20122;-70
2022/10/27 03:46:24;;;;;;;1.42;1.17;;;14.40;79.00;;;;;;5099351;28;20077;-70
2022/10/27 03:48:49;;;;;;;2.80;1.20;;;14.40;79.00;;;;;;5106461;28;20027;-69
2022/10/27 03:51:15;;;;;;;0.88;0.88;;;14.40;79.10;;;;;;5106292;28;20053;-70
2022/10/27 03:53:41;;;;;;;7.00;2.25;;;14.40;79.10;;;;;;5105239;28;20070;-70
2022/10/27 03:56:06;;;;;;;2.17;1.35;;;14.40;79.10;;;;;;5103677;28;20036;-72
2022/10/27 03:58:32;;;;;;;1.67;1.20;;;14.40;79.10;;;;;;5090759;28;20035;-69
2022/10/27 04:01:02;;;;;;;1.67;1.30;;;14.30;79.00;;;;;;5104508;28;20027;-70
2022/10/27 04:03:28;;;;;;;3.10;2.15;;;14.30;79.10;;;;;;5096913;28;20031;-69
2022/10/27 04:05:54;;;;;;;1.80;1.48;;;14.30;79.20;;;;;;5083853;28;20032;-72
2022/10/27 04:08:19;;;;;;;1.33;1.20;;;14.30;79.30;;;;;;5095224;28;20051;-72
2022/10/27 04:10:45;;;;;;;7.32;2.13;;;14.30;79.30;;;;;;5087974;28;20490;-71
2022/10/27 04:13:11;;;;;;;1.45;1.35;;;14.30;79.30;;;;;;5063992;28;20041;-69
2022/10/27 04:15:37;;;;;;;2.10;1.73;;;14.30;79.20;;;;;;5066446;28;20028;-70
2022/10/27 04:18:03;;;;;;;2.97;1.40;;;14.30;79.20;;;;;;5087118;28;20112;-71
2022/10/27 04:20:29;;;;;;;4.38;1.73;;;14.30;79.20;;;;;;5085798;28;20467;-72
2022/10/27 04:22:55;;;;;;;1.50;1.02;;;14.30;79.20;;;;;;5089881;28;20103;-72
2022/10/27 04:25:22;;;;;;;1.85;1.38;;;14.30;79.20;;;;;;5087908;28;20495;-71
2022/10/27 04:27:47;;;;;;;1.23;1.15;;;14.30;79.10;;;;;;5092234;28;20020;-69
2022/10/27 04:30:13;;;;;;;1.77;1.52;;;14.30;79.10;;;;;;5092025;28;20528;-69
2022/10/27 04:32:38;;;;;;;2.47;1.40;;;14.20;79.00;;;;;;5091847;28;20050;-70
2022/10/27 04:35:06;;;;;;;3.67;1.58;;;14.20;79.00;;;;;;5091071;28;20051;-69
2022/10/27 04:37:33;;;;;;;4.82;1.83;;;14.20;79.10;;;;;;5090417;28;20024;-70
2022/10/27 04:39:58;;;;;;;2.47;1.52;;;14.20;79.10;;;;;;5090446;28;20038;-72
2022/10/27 04:42:24;;;;;;;2.53;1.60;;;14.20;79.20;;;;;;5092204;28;20036;-72
2022/10/27 04:44:50;;;;;;;2.42;1.75;;;14.10;79.80;;;;;;5092646;28;20111;-71
2022/10/27 04:47:15;;;;;;;2.75;1.65;;;14.10;79.20;;;;;;5091826;28;20036;-70
2022/10/27 04:49:41;;;;;;;1.55;1.20;;;14.10;79.10;;;;;;5098247;28;20027;-69
2022/10/27 04:52:07;;;;;;;1.70;1.60;;;14.10;79.10;;;;;;5108534;28;20024;-70
2022/10/27 04:54:32;;;;;;;2.50;1.80;;;14.10;79.10;;;;;;5093870;28;20066;-69
2022/10/27 04:56:58;;;;;;;3.90;1.75;;;14.10;79.20;;;;;;5111633;28;20368;-69
2022/10/27 04:59:24;;;;;;;1.88;1.63;;;14.00;79.10;;;;;;5099944;28;20475;-69
2022/10/27 05:01:49;;;;;;;1.65;1.55;;;14.00;79.20;;;;;;5100512;28;20035;-69
2022/10/27 05:04:15;;;;;;;2.63;1.40;;;14.00;79.20;;;;;;5106894;28;20028;-71
2022/10/27 05:06:41;;;;;;;2.10;1.73;;;14.00;79.30;;;;;;5098216;28;20066;-72
2022/10/27 05:09:06;;;;;;;1.92;1.45;;;13.90;79.20;;;;;;5082115;28;20060;-71
2022/10/27 05:11:32;;;;;;;2.47;1.83;;;13.90;79.20;;;;;;5085940;28;20028;-72
2022/10/27 05:13:57;;;;;;;2.33;1.52;;;13.90;79.20;;;;;;5094241;28;20043;-71
2022/10/27 05:16:23;;;;;;;3.40;1.42;;;13.90;79.30;;;;;;5090111;28;20046;-72
2022/10/27 05:18:49;;;;;;;3.63;1.33;;;13.90;79.20;;;;;;5091124;28;20028;-72
2022/10/27 05:21:14;;;;;;;1.33;1.05;;;13.90;79.30;;;;;;5090684;28;20038;-72
2022/10/27 05:23:40;;;;;;;2.65;1.58;;;13.90;79.30;;;;;;5093768;28;20039;-72
2022/10/27 05:26:06;;;;;;;6.85;1.42;;;13.80;79.40;;;;;;5091897;28;20032;-72
2022/10/27 05:28:32;;;;;;;1.95;1.10;;;13.80;80.00;;;;;;5090685;28;20028;-69
2022/10/27 05:30:58;;;;;;;1.73;1.20;;;13.80;79.40;;;;;;5089531;28;20035;-70
2022/10/27 05:33:25;;;;;;;1.48;1.38;;;13.80;79.40;;;;;;5091429;28;20052;-70
2022/10/27 05:35:51;;;;;;;4.03;1.27;;;13.70;79.40;;;;;;5088851;28;20193;-70
2022/10/27 05:38:17;;;;;;;1.83;1.20;;;13.70;79.40;;;;;;5072690;28;20115;-70
2022/10/27 05:40:43;;;;;;;1.02;0.98;;;13.70;79.30;;;;;;5089117;28;20047;-70
2022/10/27 05:43:09;;;;;;;1.33;1.23;;;13.70;79.40;;;;;;5091562;28;20080;-72
2022/10/27 05:45:36;;;;;;;1.42;1.33;;;13.60;79.30;;;;;;5090133;28;20020;-72
2022/10/27 05:48:04;;;;;;;1.55;1.25;;;13.70;79.40;;;;;;5090434;28;20027;-72
2022/10/27 05:50:30;;;;;;;2.00;1.20;;;13.70;79.40;;;;;;5102147;28;20446;-71
2022/10/27 05:52:56;;;;;;;1.30;1.20;;;13.60;79.30;;;;;;5098444;28;20153;-71
2022/10/27 05:55:23;;;;;;;1.98;1.30;;;13.60;79.30;;;;;;5094651;28;20051;-71
2022/10/27 05:58:00;;;;;;;1.38;1.08;;;13.60;79.40;;;;;;5106078;28;20024;-71
2022/10/27 06:00:29;;;;;;;1.27;1.10;;;13.60;79.30;;;;;;5100857;28;20040;-72
2022/10/27 06:02:56;;;;;;;1.13;1.02;;;13.60;79.40;;;;;;5108031;28;20063;-72
2022/10/27 06:05:23;;;;;;;2.35;1.30;;;13.60;79.40;;;;;;5099615;28;20032;-71
2022/10/27 06:07:48;;;;;;;1.17;1.08;;;13.60;79.40;;;;;;5097812;28;20027;-72
2022/10/27 06:10:14;;;;;;;1.58;1.40;;;13.60;79.40;;;;;;5079035;28;20372;-72
2022/10/27 06:12:40;;;;;;;1.38;1.27;;;13.60;79.40;;;;;;5101088;28;20122;-72
2022/10/27 06:15:06;;;;;;;1.45;1.10;;;13.60;79.50;;;;;;5090356;28;20434;-72
2022/10/27 06:17:31;;;;;;;1.25;1.10;;;13.60;79.40;;;;;;5091566;28;20073;-72
2022/10/27 06:19:57;;;;;;;1.58;1.23;;;13.60;79.40;;;;;;5093130;28;20031;-72
2022/10/27 06:22:23;;;;;;;1.92;0.90;;;13.50;79.40;;;;;;5102295;28;20474;-71
2022/10/27 06:24:48;;;;;;;1.23;1.08;;;13.60;79.40;;;;;;5092796;28;20043;-71
2022/10/27 06:27:14;;;;;;;2.08;1.48;;;13.50;79.30;;;;;;5088661;28;20040;-70
2022/10/27 06:29:40;;;;;;;1.65;1.38;;;13.50;79.30;;;;;;5096240;28;20032;-70
2022/10/27 06:32:05;;;;;;;0.90;0.85;;;13.50;79.40;;;;;;5092565;28;20020;-70
2022/10/27 06:34:31;;;;;;;1.23;1.13;;;13.50;79.40;;;;;;5096097;28;20462;-70
2022/10/27 06:36:56;;;;;;;1.85;0.93;;;13.50;79.50;;;;;;5090894;28;20051;-70
2022/10/27 06:39:22;;;;;;;3.55;1.17;;;13.50;79.50;;;;;;5083930;28;20055;-72
2022/10/27 06:41:48;;;;;;;2.03;1.33;;;13.60;79.50;;;;;;5106173;28;20070;-73
2022/10/27 06:44:13;;;;;;;2.55;1.35;;;13.60;79.60;;;;;;5102205;28;20446;-72
2022/10/27 06:46:39;;;;;;;1.35;1.25;;;13.60;79.50;;;;;;5081810;28;20098;-71
2022/10/27 06:49:05;;;;;;;1.52;1.23;;;13.60;79.50;;;;;;5100572;28;20111;-71
2022/10/27 06:51:31;;;;;;;1.67;0.95;;;13.70;79.50;;;;;;5102131;28;20108;-70
2022/10/27 06:53:57;;;;;;;1.50;1.25;;;13.70;79.60;;;;;;5096629;28;20519;-69
2022/10/27 06:56:23;;;;;;;2.17;1.08;;;13.70;79.50;;;;;;5088445;28;20099;-69
2022/10/27 06:58:49;;;;;;;1.98;1.33;;;13.80;79.60;;;;;;5084260;28;20056;-70
2022/10/27 07:01:15;;;;;;;1.27;1.17;;;13.80;79.60;;;;;;5081303;28;20039;-70
2022/10/27 07:03:41;;;;;;;3.17;1.33;;;13.80;79.60;;;;;;5087444;28;20035;-70
2022/10/27 07:06:06;;;;;;;3.22;1.52;;;13.90;79.60;;;;;;5086584;28;20036;-72
2022/10/27 07:08:32;;;;;;;1.10;1.00;;;13.90;79.60;;;;;;5085070;28;20039;-71
2022/10/27 07:10:58;;;;;;;2.03;1.60;;;14.00;79.60;;;;;;5088932;28;20475;-72
2022/10/27 07:13:24;;;;;;;5.10;1.55;;;14.00;79.60;;;;;;5088087;28;20024;-71
2022/10/27 07:15:49;;;;;;;1.15;1.05;;;14.00;79.50;;;;;;5087805;28;20032;-72
2022/10/27 07:18:15;;;;;;;3.30;1.52;;;14.10;79.50;;;;;;5090653;28;20475;-72
2022/10/27 07:20:44;;;;;;;1.90;1.70;;;14.10;79.50;;;;;;5087060;28;20032;-72
2022/10/27 07:23:10;;;;;;;1.70;1.40;;;14.20;79.60;;;;;;5091646;28;20028;-71
2022/10/27 07:25:36;;;;;;;5.90;1.00;;;14.20;79.60;;;;;;5084106;28;20395;-72
2022/10/27 07:28:03;;;;;;;3.53;1.10;;;14.30;79.60;;;;;;5083955;28;20391;-72
2022/10/27 07:30:32;;;;;;;2.65;1.13;;;14.30;79.60;;;;;;5077317;28;20032;-73
2022/10/27 07:32:58;;;;;;;2.03;0.98;;;14.40;79.60;;;;;;5073863;28;20128;-71
2022/10/27 07:35:25;;;;;;;1.02;0.98;;;14.50;79.60;;;;;;5080793;28;20095;-71
2022/10/27 07:37:51;;;;;;;2.53;1.23;;;14.50;79.60;;;;;;5077578;28;20020;-71
2022/10/27 07:40:18;;;;;;;3.28;1.50;;;14.60;79.50;;;;;;5071735;28;20365;-71
2022/10/27 07:42:49;;;;;;;1.48;1.10;;;14.70;79.50;;;;;;5071001;28;20028;-72
2022/10/27 07:45:17;;;;;;;3.03;1.58;;;14.80;79.50;;;;;;5078668;28;20116;-72
2022/10/27 07:47:54;;;;;;;3.03;1.50;;;14.80;79.50;;;;;;5078787;28;20032;-72
2022/10/27 07:50:28;;;;;;;1.30;0.85;;;14.90;79.50;;;;;;5081791;28;20539;-71
2022/10/27 07:52:55;;;;;;;1.58;1.02;;;15.00;79.60;;;;;;5076135;28;20560;-72
2022/10/27 07:55:23;;;;;;;1.63;1.27;;;15.00;79.50;;;;;;5084805;28;20077;-72
2022/10/27 07:57:58;;;;;;;2.08;1.50;;;15.10;80.20;;;;;;5088864;28;20474;-71
2022/10/27 08:00:24;;;;;;;2.45;1.30;;;15.10;79.60;;;;;;5083457;28;20048;-71
2022/10/27 08:02:49;;;;;;;1.73;1.20;;;15.20;79.60;;;;;;5081244;28;20074;-71
2022/10/27 08:05:15;;;;;;;5.40;1.30;;;15.30;79.60;;;;;;5089954;28;20032;-71
2022/10/27 08:07:40;;;;;;;1.15;1.00;;;15.40;79.60;;;;;;5086795;28;20047;-71
2022/10/27 08:10:06;;;;;;;2.35;1.13;;;15.40;79.60;;;;;;5093242;28;20050;-72
2022/10/27 08:12:33;;;;;;;3.10;1.08;;;15.40;79.70;;;;;;5089703;28;20028;-72
2022/10/27 08:14:58;;;;;;;1.73;1.30;;;15.40;79.70;;;;;;5090582;28;20039;-71
2022/10/27 08:17:27;;;;;;;1.80;0.90;;;15.50;79.80;;;;;;5090134;28;20056;-70
2022/10/27 08:19:53;;;;;;;1.50;0.90;;;15.50;79.80;;;;;;5084849;28;20016;-70
2022/10/27 08:22:18;;;;;;;1.88;1.23;;;15.60;79.90;;;;;;5086114;28;20082;-70
2022/10/27 08:24:45;;;;;;;2.30;0.88;;;15.60;79.90;;;;;;5090805;28;20024;-71
2022/10/27 08:27:10;;;;;;;0.95;0.70;;;15.70;79.90;;;;;;5088352;28;20164;-71
2022/10/27 08:29:36;;;;;;;3.40;1.38;;;15.80;79.70;;;;;;5079858;28;20052;-71
2022/10/27 08:32:02;;;;;;;0.60;0.60;;;15.90;79.60;;;;;;5093561;28;20032;-71
2022/10/27 08:34:27;;;;;;;1.15;1.05;;;16.00;79.50;;;;;;5084727;28;20031;-71
2022/10/27 08:36:53;;;;;;;2.33;1.10;;;16.10;79.50;;;;;;5091585;28;20031;-70
2022/10/27 08:39:19;;;;;;;2.42;1.15;;;16.20;79.30;;;;;;5087374;28;20024;-71
2022/10/27 08:42:02;;;;;;;5.57;1.40;;;16.30;79.20;;;;;;5092919;28;20024;-71
2022/10/27 08:44:49;;;;;;;1.08;0.98;;;16.40;79.20;;;;;;5088703;28;20454;-71
2022/10/27 08:47:23;;;;;;;1.15;1.05;;;16.50;79.00;;;;;;5089268;28;20032;-71
2022/10/27 08:50:01;;;;;;;0.93;0.90;;;16.60;79.50;;;;;;5094983;28;20081;-71
2022/10/27 08:52:48;;;;;;;1.83;1.23;;;16.60;78.90;;;;;;5101945;28;20050;-71
2022/10/27 08:55:13;;;;;;;0.95;0.70;;;16.70;78.90;;;;;;5090451;28;20049;-71
2022/10/27 08:57:58;;;;;;;1.20;1.08;;;16.70;79.00;;;;;;5092939;28;20024;-71
2022/10/27 09:00:24;;;;;;;2.28;1.00;;;16.80;79.00;;;;;;5089693;28;20490;-72
2022/10/27 09:03:04;;;;;;;1.58;0.98;;;16.90;79.00;;;;;;5080046;28;20029;-70
2022/10/27 09:06:03;;;;;;;2.10;1.17;;;17.10;78.80;;;;;;5082922;28;20040;-70
2022/10/27 09:08:34;;;;;;;1.00;0.90;;;17.20;78.80;;;;;;5080611;28;20369;-71
2022/10/27 09:11:08;;;;;;;2.20;1.58;;;17.30;78.60;;;;;;5086494;28;20024;-71
2022/10/27 09:14:06;;;;;;;1.50;1.13;;;17.50;78.50;;;;;;5085664;28;20023;-71
2022/10/27 09:16:49;;;;;;;2.10;0.82;;;17.60;78.10;;;;;;5092096;27;20487;-71
2022/10/27 09:19:22;;;;;;;1.67;0.98;;;17.70;77.90;;;;;;5082146;28;20017;-71
2022/10/27 09:21:50;;;;;;;2.03;1.10;;;17.70;77.90;;;;;;5094360;28;20357;-71
2022/10/27 09:24:23;;;;;;;5.78;1.70;;;17.80;77.90;;;;;;5099377;28;20036;-71
2022/10/27 09:26:49;;;;;;;1.67;1.42;;;17.90;77.90;;;;;;5099915;28;20046;-71
2022/10/27 09:29:22;;;;;;;0.80;0.80;;;18.00;77.90;;;;;;5090580;28;20050;-71
2022/10/27 09:32:01;;;;;;;1.42;0.98;;;18.10;77.50;;;;;;5088155;28;20024;-71
2022/10/27 09:34:34;;;;;;;0.85;0.70;;;18.20;77.40;;;;;;5090505;28;20395;-71
2022/10/27 09:37:00;;;;;;;0.73;0.55;;;18.40;76.90;;;;;;5084322;28;20008;-71
2022/10/27 09:39:26;;;;;;;1.17;0.75;;;18.60;76.60;;;;;;5091386;28;20505;-71
2022/10/27 09:41:52;;;;;;;1.08;0.60;;;18.70;76.20;;;;;;5090012;28;20032;-70
2022/10/27 09:44:23;;;;;;;1.75;1.27;;;18.80;76.00;;;;;;5086414;28;20036;-71
2022/10/27 09:46:56;;;;;;;1.08;0.55;;;18.90;75.90;;;;;;5083687;28;20023;-70
2022/10/27 09:49:34;;;;;;;0.60;0.60;;;19.00;75.80;;;;;;5094691;28;20525;-71
2022/10/27 09:52:08;;;;;;;1.25;0.80;;;19.20;75.50;;;;;;5109457;28;20023;-71
2022/10/27 09:54:41;;;;;;;1.38;0.80;;;19.30;75.30;;;;;;5090781;28;20051;-71
2022/10/27 09:57:15;;;;;;;1.45;0.90;;;19.40;74.90;;;;;;5091454;28;20020;-72
2022/10/27 09:59:41;;;;;;;1.25;0.60;;;19.60;74.90;;;;;;5090287;28;20027;-71
2022/10/27 10:02:40;;;;;;;0.70;0.60;;;19.60;74.60;;;;;;5091625;28;20367;-71
2022/10/27 10:05:27;;;;;;;1.40;0.80;;;19.70;74.20;;;;;;5063586;28;20479;-71
2022/10/27 10:08:23;;;;;;;0.60;0.60;;;19.70;74.10;;;;;;5092170;28;20542;-71
2022/10/27 10:10:55;;;;;;;0.70;0.68;;;19.70;74.00;;;;;;5098207;28;20073;-71
2022/10/27 10:13:21;;;;;;;0.82;0.60;;;19.80;74.00;;;;;;5091455;28;20659;-71
2022/10/27 10:15:47;;;;;;;1.05;0.68;;;19.80;73.90;;;;;;5102670;28;20030;-71
2022/10/27 10:18:28;;;;;;;0.63;0.52;;;19.90;73.80;;;;;;5087534;28;20115;-71
2022/10/27 10:21:00;;;;;;;1.35;0.63;;;19.90;73.50;;;;;;5097406;28;20032;-71
2022/10/27 10:23:40;;;;;;;0.93;0.65;;;19.90;73.50;;;;;;5088733;28;20379;-71
2022/10/27 10:26:17;;;;;;;1.73;0.60;;;20.00;73.40;;;;;;5089820;28;20073;-71
2022/10/27 10:28:43;;;;;;;1.05;0.50;;;20.10;73.20;;;;;;5092208;28;20026;-71
2022/10/27 10:31:13;;;;;;;2.00;0.90;;;20.50;72.80;;;;;;5088617;28;20126;-71
2022/10/27 10:33:43;;;;;;;1.35;0.90;;;20.70;72.00;;;;;;5091040;28;20028;-71
2022/10/27 10:36:35;;;;;;;1.00;0.47;;;20.90;71.20;;;;;;5085870;28;20020;-71
2022/10/27 10:39:03;;;;;;;2.55;0.50;;;21.20;70.80;;;;;;5087851;28;20024;-71
2022/10/27 10:41:29;;;;;;;0.93;0.60;;;21.50;69.90;;;;;;5097754;28;20114;-71
2022/10/27 10:44:24;;;;;;;0.90;0.60;;;21.70;68.60;;;;;;5090868;28;20032;-71
2022/10/27 10:46:54;;;;;;;0.68;0.68;;;21.90;68.70;;;;;;5064515;28;20053;-72
2022/10/27 10:49:35;;;;;;;0.82;0.50;;;22.00;68.40;;;;;;5093721;28;20176;-72
2022/10/27 10:52:05;;;;;;;2.90;0.85;;;22.00;67.80;;;;;;5097695;28;20024;-72
2022/10/27 10:54:39;;;;;;;0.45;0.45;;;21.80;67.90;;;;;;5104228;28;20395;-72
2022/10/27 10:57:19;;;;;;;0.30;0.30;;;21.80;68.10;;;;;;5090699;28;20020;-71
2022/10/27 10:59:46;;;;;;;0.60;0.60;;;21.70;67.90;;;;;;5089847;28;20035;-72
2022/10/27 11:02:21;;;;;;;0.57;0.57;;;21.60;68.00;;;;;;5089268;28;20029;-72
2022/10/27 11:04:47;;;;;;;4.38;1.50;;;21.60;67.90;;;;;;5097489;28;20027;-72
2022/10/27 11:07:25;;;;;;;0.38;0.38;;;21.60;67.90;;;;;;5101016;28;20023;-72
2022/10/27 11:09:59;;;;;;;0.40;0.40;;;21.70;67.90;;;;;;5089791;28;20012;-71
2022/10/27 11:12:55;;;;;;;0.40;0.40;;;21.70;67.70;;;;;;5086028;28;20108;-70
2022/10/27 11:15:24;;;;;;;0.40;0.40;;;21.80;67.60;;;;;;5081580;28;20024;-72
2022/10/27 11:17:52;;;;;;;0.90;0.43;;;21.80;67.40;;;;;;5084672;28;20421;-71
2022/10/27 11:20:22;;;;;;;0.90;0.82;;;21.80;67.20;;;;;;5079318;28;20016;-71
2022/10/27 11:22:50;;;;;;;0.80;0.30;;;21.80;67.00;;;;;;5089783;28;20535;-71
2022/10/27 11:25:26;;;;;;;0.45;0.45;;;21.70;67.20;;;;;;5089924;28;20372;-71
2022/10/27 11:28:28;;;;;;;0.43;0.43;;;21.70;66.80;;;;;;5089912;28;20069;-72
2022/10/27 11:31:39;;;;;;;1.63;0.60;;;21.70;66.70;;;;;;5087855;28;20038;-71
2022/10/27 11:34:43;;;;;;;0.73;0.73;;;21.70;66.70;;;;;;5042925;28;20036;-72
2022/10/27 11:37:19;;;;;;;0.57;0.57;;;21.90;66.50;;;;;;5090796;28;20050;-72
2022/10/27 11:40:01;;;;;;;0.93;0.60;;;22.10;66.00;;;;;;5096440;28;20058;-72
2022/10/27 11:42:42;;;;;;;0.55;0.55;;;22.10;65.30;;;;;;5090527;28;20031;-72
2022/10/27 11:45:34;;;;;;;0.77;0.50;;;22.00;65.60;;;;;;5103145;27;20086;-72
2022/10/27 11:48:20;;;;;;;0.47;0.32;;;21.80;66.00;;;;;;5104523;28;20038;-71
2022/10/27 11:51:19;;;;;;;1.90;0.63;;;21.70;66.50;;;;;;5093081;28;20040;-71
2022/10/27 11:53:45;;;;;;;3.70;0.88;;;21.60;66.30;;;;;;5086454;28;20098;-72
2022/10/27 11:56:13;;;;;;;0.43;0.43;;;21.60;66.50;;;;;;5093860;28;20528;-72
2022/10/27 11:59:08;;;;;;;0.55;0.55;;;21.70;66.50;;;;;;5094723;28;20016;-72
2022/10/27 12:01:45;;;;;;;1.02;0.60;;;22.00;65.70;;;;;;5060090;28;20032;-72
2022/10/27 12:04:13;;;;;;;1.40;0.30;;;22.10;65.50;;;;;;5086674;28;20089;-71
2022/10/27 12:06:54;;;;;;;1.15;0.40;;;22.00;65.60;;;;;;5089101;28;20023;-71
2022/10/27 12:09:31;;;;;;;1.95;0.82;;;21.90;65.70;;;;;;5082341;28;20028;-71
2022/10/27 12:12:26;;;;;;;0.50;0.40;;;21.80;66.10;;;;;;5094703;28;20051;-72
2022/10/27 12:15:23;;;;;;;0.68;0.68;;;22.00;66.10;;;;;;5061146;28;20035;-72
2022/10/27 12:18:11;;;;;;;4.68;0.40;;;22.20;65.20;;;;;;5089170;28;20028;-72
2022/10/27 12:20:48;;;;;;;0.40;0.40;;;22.00;65.30;;;;;;5076431;28;20377;-72
2022/10/27 12:23:20;;;;;;;1.25;0.50;;;21.90;65.80;;;;;;5096362;28;20076;-72
2022/10/27 12:26:13;;;;;;;0.40;0.40;;;21.80;66.10;;;;;;5089613;28;20025;-71
2022/10/27 12:28:39;;;;;;;;;;;21.70;66.30;;;;;;5083571;28;20100;-71
2022/10/27 12:31:11;;;;;;;3.88;0.85;;;21.60;66.60;;;;;;5079633;28;20011;-71
2022/10/27 12:33:44;;;;;;;0.60;0.60;;;21.50;66.60;;;;;;5083134;28;20020;-72
2022/10/27 12:36:13;;;;;;;0.55;0.52;;;21.50;66.60;;;;;;5093851;28;20016;-72
2022/10/27 12:39:01;;;;;;;0.52;0.50;;;21.50;66.80;;;;;;5096532;28;20028;-72
2022/10/27 12:41:54;;;;;;;0.85;0.70;;;21.50;66.80;;;;;;5095375;28;20111;-71
2022/10/27 12:44:26;;;;;;;0.47;0.47;;;21.40;67.00;;;;;;5086310;28;20399;-72
2022/10/27 12:47:20;;;;;;;0.68;0.50;;;21.30;67.30;;;;;;5092218;28;20482;-71
2022/10/27 12:50:16;;;;;;;1.63;0.57;;;21.30;67.50;;;;;;5100005;28;20194;-71
2022/10/27 12:53:25;;;;;;;1.75;0.40;;;21.20;67.50;;;;;;5110631;28;20031;-71
2022/10/27 12:56:18;;;;;;;0.85;0.60;;;21.20;67.70;;;;;;5091843;28;20448;-71
2022/10/27 12:59:12;;;;;;;0.75;0.60;;;21.10;68.00;;;;;;5102825;28;20471;-71
2022/10/27 13:01:52;;;;;;;0.73;0.55;;;21.00;68.30;;;;;;5081875;28;20024;-71
2022/10/27 13:04:55;;;;;;;4.07;0.43;;;20.90;68.60;;;;;;5089689;28;20050;-70
2022/10/27 13:07:32;;;;;;;0.77;0.60;;;20.80;68.70;;;;;;5088646;28;20471;-70
2022/10/27 13:10:30;;;;;;;2.17;0.50;;;20.80;68.90;;;;;;5091963;28;20024;-71